Time;durP1;ratioP1;P1;durP2;ratioP2;P2;SDS_P1;SDS_P2;PMS_P1;PMS_P2;Temp;Humidity;BMP_temperature;BMP_pressure;BME280_temperature;BME280_humidity;BME280_pressure;Samples;Min_cycle;Max_cycle;Signal;HPM_P1;HPM_P2
2022/06/21 05:45:14;;;;;;;9.03;7.60;;;;;;;15.99;100.00;97037.17;1846531;75;23424;-62
2022/06/21 05:48:10;;;;;;;5.15;4.58;;;;;;;15.77;100.00;97041.82;1772769;78;21412;-62
2022/06/21 05:50:38;;;;;;;4.40;3.72;;;;;;;15.65;100.00;97031.09;1823618;77;21243;-64
2022/06/21 05:53:12;;;;;;;7.25;3.70;;;;;;;15.52;100.00;97032.28;1824333;77;20992;-72
2022/06/21 05:55:44;;;;;;;6.08;3.25;;;;;;;15.42;100.00;97028.70;1833184;77;21039;-70
2022/06/21 05:58:26;;;;;;;4.87;2.98;;;;;;;15.33;100.00;97024.78;1853653;77;21057;-65
2022/06/21 06:01:12;;;;;;;2.90;2.60;;;;;;;15.22;100.00;97052.59;1825636;77;20927;-61
2022/06/21 06:03:58;;;;;;;3.15;2.85;;;;;;;15.08;100.00;97059.16;1808395;77;20966;-64
2022/06/21 06:06:25;;;;;;;4.45;2.90;;;;;;;14.93;100.00;97059.09;1803152;77;20911;-62
2022/06/21 06:08:56;;;;;;;4.10;2.52;;;;;;;14.79;100.00;97079.64;1796594;79;22148;-62
2022/06/21 06:14:16;;;;;;;4.55;2.90;;;;;;;14.74;100.00;97098.77;1792345;77;21063;-62
2022/06/21 06:16:43;;;;;;;3.08;2.85;;;;;;;14.75;100.00;97101.67;1821932;77;21251;-66
2022/06/21 06:19:18;;;;;;;3.75;3.45;;;;;;;14.74;100.00;97113.59;1825870;78;21115;-65
2022/06/21 06:21:54;;;;;;;3.40;3.10;;;;;;;14.72;100.00;97104.27;1816955;77;21316;-65
2022/06/21 06:24:31;;;;;;;3.55;2.92;;;;;;;14.73;100.00;97101.78;1810251;77;21061;-61
2022/06/21 06:27:00;;;;;;;5.40;2.98;;;;;;;14.70;100.00;97099.20;1817198;77;21023;-64
2022/06/21 06:29:34;;;;;;;4.03;3.72;;;;;;;14.67;100.00;97090.46;1816033;77;21234;-62
2022/06/21 06:32:23;;;;;;;4.72;4.30;;;;;;;14.67;100.00;97095.06;1804215;77;21064;-65
2022/06/21 06:35:07;;;;;;;7.12;4.10;;;;;;;14.69;100.00;97079.33;1824003;77;21117;-59
2022/06/21 06:37:50;;;;;;;4.55;3.40;;;;;;;14.67;100.00;97085.62;1810600;77;21102;-60
2022/06/21 06:40:49;;;;;;;4.37;3.58;;;;;;;14.60;100.00;97086.16;1792266;78;20994;-64
2022/06/21 06:43:43;;;;;;;3.87;3.20;;;;;;;14.60;100.00;97074.04;1821128;78;20987;-65
2022/06/21 06:46:22;;;;;;;4.47;3.45;;;;;;;14.66;100.00;97061.92;1799276;79;20961;-70
2022/06/21 06:48:50;;;;;;;5.47;3.87;;;;;;;14.63;100.00;97076.06;1801432;79;21080;-65
2022/06/21 06:51:43;;;;;;;4.58;3.40;;;;;;;14.62;100.00;97069.13;1790165;79;21093;-62
2022/06/21 06:58:37;;;;;;;4.05;3.30;;;;;;;14.63;100.00;97077.41;1794807;79;21305;-67
2022/06/21 07:01:23;;;;;;;4.33;3.47;;;;;;;14.69;100.00;97085.52;1789470;79;21023;-64
2022/06/21 07:03:55;;;;;;;3.90;3.50;;;;;;;14.73;100.00;97091.80;1790335;79;20994;-67
2022/06/21 07:09:47;;;;;;;4.45;3.58;;;;;;;14.76;100.00;97097.86;1710653;81;20952;-60
2022/06/21 07:12:22;;;;;;;5.25;3.67;;;;;;;14.80;100.00;97093.91;1707654;82;21131;-61
2022/06/21 07:14:49;;;;;;;;;;;;;;;14.81;100.00;97098.98;1705747;82;21562;-64
2022/06/21 07:17:32;;;;;;;3.87;3.55;;;;;;;14.80;100.00;97101.45;1703389;83;20063;-63
2022/06/21 07:19:59;;;;;;;6.90;3.20;;;;;;;14.75;100.00;97112.45;1714318;82;21039;-66
2022/06/21 07:22:29;;;;;;;6.08;3.70;;;;;;;14.79;100.00;97108.53;1720722;82;20991;-62
2022/06/21 07:25:33;;;;;;;4.70;3.83;;;;;;;14.83;100.00;97110.22;1716827;82;22287;-68
2022/06/21 07:28:06;;;;;;;6.00;3.60;;;;;;;14.87;100.00;97128.63;1701906;84;20924;-63
2022/06/21 07:30:39;;;;;;;3.67;3.30;;;;;;;14.90;100.00;97127.95;1702464;84;21598;-64
2022/06/21 07:33:05;;;;;;;5.67;3.52;;;;;;;14.91;100.00;97136.80;1703970;82;20960;-64
2022/06/21 07:35:35;;;;;;;3.67;3.20;;;;;;;14.92;100.00;97121.66;1709750;82;21028;-66
2022/06/21 07:38:10;;;;;;;4.35;3.42;;;;;;;15.01;100.00;97118.27;1710552;82;21192;-65
2022/06/21 07:40:59;;;;;;;4.17;3.45;;;;;;;15.13;100.00;97105.88;1704776;82;20988;-60
2022/06/21 07:43:44;;;;;;;3.92;2.92;;;;;;;15.24;99.57;97096.22;1707611;82;21022;-62
2022/06/21 07:46:17;;;;;;;2.70;2.33;;;;;;;15.35;99.36;97098.09;1706378;82;21058;-63
2022/06/21 07:49:05;;;;;;;2.90;2.00;;;;;;;15.45;97.62;97107.65;1710482;82;20970;-68
2022/06/21 07:51:41;;;;;;;2.52;2.17;;;;;;;15.43;94.40;97112.55;1724386;82;22036;-68
2022/06/21 07:54:14;;;;;;;3.45;1.40;;;;;;;15.30;90.10;97150.14;1704737;82;21003;-64
2022/06/21 07:56:54;;;;;;;5.60;1.60;;;;;;;15.11;89.10;97174.22;1703554;82;21007;-65
2022/06/21 07:59:33;;;;;;;4.45;1.65;;;;;;;15.00;89.72;97165.23;1708658;82;20997;-64
2022/06/21 08:08:00;;;;;;;2.15;1.30;;;;;;;14.83;88.77;97140.42;1711352;82;21202;-61
2022/06/21 08:10:35;;;;;;;4.20;1.32;;;;;;;14.79;89.99;97147.62;1730799;81;20992;-67
2022/06/21 08:13:03;;;;;;;3.50;1.40;;;;;;;14.84;89.93;97161.64;1727009;81;21028;-65
2022/06/21 08:15:34;;;;;;;2.20;1.50;;;;;;;14.84;90.26;97186.46;1726043;81;21530;-60
2022/06/21 08:18:31;;;;;;;2.27;1.30;;;;;;;14.80;90.51;97211.97;1730895;81;21100;-66
2022/06/21 08:21:02;;;;;;;2.80;1.52;;;;;;;14.78;91.01;97210.73;1735035;81;21102;-64
2022/06/21 08:23:40;;;;;;;2.70;1.25;;;;;;;14.76;91.60;97180.08;1724951;81;21126;-58
2022/06/21 08:26:21;;;;;;;2.20;1.35;;;;;;;14.79;91.48;97164.55;1727370;81;21044;-63
2022/06/21 08:29:06;;;;;;;2.40;1.67;;;;;;;14.78;90.80;97165.70;1726803;81;21086;-62
2022/06/21 08:31:36;;;;;;;1.90;1.40;;;;;;;14.79;90.93;97172.64;1726060;81;21737;-59
2022/06/21 08:34:29;;;;;;;3.37;1.50;;;;;;;14.81;90.40;97140.77;1732535;81;21587;-63
2022/06/21 08:37:10;;;;;;;2.80;1.55;;;;;;;14.91;91.16;97144.34;1724323;81;20986;-63
2022/06/21 08:40:01;;;;;;;2.02;1.55;;;;;;;15.09;90.34;97140.86;1723848;83;20983;-58
2022/06/21 08:42:55;;;;;;;2.83;1.40;;;;;;;15.21;89.38;97144.09;1726913;81;21061;-66
2022/06/21 08:45:45;;;;;;;1.40;1.30;;;;;;;15.30;88.51;97146.89;1674197;81;21252;-63
2022/06/21 08:48:35;;;;;;;3.50;1.45;;;;;;;15.32;86.98;97139.79;1727799;81;20987;-67
2022/06/21 08:51:30;;;;;;;4.58;1.40;;;;;;;15.36;86.25;97128.53;1730165;81;21050;-63
2022/06/21 08:54:26;;;;;;;2.30;1.67;;;;;;;15.45;84.52;97135.98;1722698;81;21081;-65
2022/06/21 08:57:19;;;;;;;1.45;1.12;;;;;;;15.65;83.64;97140.41;1717580;81;21190;-62
2022/06/21 09:00:08;;;;;;;2.25;1.25;;;;;;;15.99;82.83;97114.14;1728232;81;21104;-63
2022/06/21 09:03:18;;;;;;;1.87;1.20;;;;;;;16.21;81.01;97127.08;1734983;81;21538;-61
2022/06/21 09:06:11;;;;;;;1.77;1.22;;;;;;;16.40;80.97;97133.95;1728592;81;21083;-62
2022/06/21 09:09:04;;;;;;;2.25;1.40;;;;;;;16.61;81.03;97124.81;1729519;81;21027;-65
2022/06/21 09:12:05;;;;;;;3.40;1.10;;;;;;;16.84;81.28;97117.07;1713078;83;21003;-66
2022/06/21 09:15:03;;;;;;;4.67;1.57;;;;;;;16.99;78.02;97129.01;1696393;83;21692;-63
2022/06/21 09:17:57;;;;;;;2.27;1.30;;;;;;;17.05;76.42;97120.85;1723086;83;20940;-65
2022/06/21 09:20:41;;;;;;;3.70;1.10;;;;;;;17.14;75.28;97130.91;1723974;83;20865;-60
2022/06/21 09:23:38;;;;;;;2.27;1.07;;;;;;;17.19;74.96;97136.05;1724002;83;20911;-61
2022/06/21 09:26:34;;;;;;;1.52;0.88;;;;;;;17.27;76.08;97147.23;1660687;83;21576;-66
2022/06/21 09:29:10;;;;;;;;;;;;;;;17.36;72.06;97142.99;1727519;83;21189;-62
2022/06/21 09:32:09;;;;;;;2.72;1.00;;;;;;;17.32;69.22;97133.42;1724420;83;20156;-62
2022/06/21 09:34:53;;;;;;;1.40;0.90;;;;;;;17.33;67.76;97132.86;1655886;86;21066;-64
2022/06/21 09:37:36;;;;;;;5.65;1.20;;;;;;;17.50;67.44;97122.40;1721303;83;20936;-64
2022/06/21 09:40:23;;;;;;;2.90;1.10;;;;;;;17.76;67.34;97116.38;1717129;83;20932;-66
2022/06/21 09:43:15;;;;;;;1.72;1.20;;;;;;;17.94;65.32;97125.64;1718206;83;21104;-65
2022/06/21 09:45:59;;;;;;;3.15;0.90;;;;;;;18.07;65.14;97128.39;1686507;85;20903;-68
2022/06/21 09:48:50;;;;;;;8.63;1.02;;;;;;;18.16;63.13;97122.77;1724702;83;20933;-64
2022/06/21 09:51:46;;;;;;;6.47;1.00;;;;;;;18.22;63.31;97118.59;1711946;83;21577;-66
2022/06/21 09:54:27;;;;;;;1.92;1.00;;;;;;;18.35;61.88;97121.34;1724626;83;20888;-62
2022/06/21 09:57:12;;;;;;;3.20;1.00;;;;;;;18.47;59.56;97111.70;1724806;83;21143;-65
2022/06/21 10:00:06;;;;;;;1.77;1.07;;;;;;;18.48;59.12;97110.57;1724797;83;28631;-64
2022/06/21 10:02:59;;;;;;;3.20;1.12;;;;;;;18.54;59.05;97103.69;1724422;83;25116;-66
2022/06/21 10:05:34;;;;;;;2.52;1.00;;;;;;;18.64;58.45;97112.58;1725392;83;21011;-67
2022/06/21 10:08:35;;;;;;;3.08;1.10;;;;;;;18.53;58.06;97119.77;1725176;83;20911;-61
2022/06/21 10:11:19;;;;;;;5.00;1.10;;;;;;;18.55;58.77;97113.97;1726473;83;21135;-63
2022/06/21 10:14:07;;;;;;;4.42;1.30;;;;;;;18.76;58.85;97118.38;1725256;83;21015;-59
2022/06/21 10:16:56;;;;;;;1.98;1.00;;;;;;;19.00;54.44;97130.98;1725996;83;20975;-60
2022/06/21 10:19:40;;;;;;;2.70;1.00;;;;;;;19.08;52.83;97097.35;1724528;83;20978;-66
2022/06/21 10:22:55;;;;;;;3.05;1.00;;;;;;;18.94;52.54;97110.72;1724862;83;20907;-67
2022/06/21 10:25:58;;;;;;;3.60;1.00;;;;;;;18.82;53.00;97117.70;1725064;83;21416;-66
2022/06/21 10:28:49;;;;;;;2.10;0.80;;;;;;;18.68;51.33;97116.12;1715411;83;21086;-66
2022/06/21 10:31:53;;;;;;;3.52;1.00;;;;;;;18.69;54.14;97104.14;1725044;83;20949;-69
2022/06/21 10:34:58;;;;;;;3.35;0.98;;;;;;;18.89;55.05;97096.67;1725226;83;21089;-64
2022/06/21 10:37:43;;;;;;;2.87;1.10;;;;;;;19.08;48.50;97097.35;1719854;81;21082;-68
2022/06/21 10:40:30;;;;;;;3.17;1.20;;;;;;;19.12;49.51;97090.03;1722989;83;21261;-59
2022/06/21 10:43:09;;;;;;;1.25;0.70;;;;;;;19.29;50.72;97089.31;1723949;83;20975;-63
2022/06/21 10:45:48;;;;;;;5.15;1.05;;;;;;;19.44;47.87;97085.64;1696768;83;21064;-62
2022/06/21 10:48:49;;;;;;;2.00;1.00;;;;;;;19.42;47.97;97083.88;1695649;84;20992;-63
2022/06/21 10:52:05;;;;;;;1.75;0.70;;;;;;;19.43;48.90;97089.52;1700642;83;21059;-62
2022/06/21 10:54:52;;;;;;;1.65;0.62;;;;;;;19.56;50.34;97082.69;1714543;83;21183;-64
2022/06/21 10:57:39;;;;;;;1.75;0.90;;;;;;;19.84;46.75;97091.17;1723462;81;20932;-61
2022/06/21 11:03:25;;;;;;;1.42;0.70;;;;;;;19.76;43.88;97088.16;1705980;83;21071;-63
2022/06/21 11:06:16;;;;;;;2.83;1.07;;;;;;;19.69;45.29;97088.07;1722156;83;20967;-65
2022/06/21 11:09:07;;;;;;;4.17;1.05;;;;;;;19.79;44.93;97088.20;1724236;81;23023;-60
2022/06/21 11:11:56;;;;;;;2.30;0.80;;;;;;;19.83;46.35;97082.04;1733623;81;21129;-66
2022/06/21 11:14:43;;;;;;;2.12;1.10;;;;;;;19.88;45.44;97082.47;1734397;82;20931;-67
2022/06/21 11:17:28;;;;;;;3.83;0.95;;;;;;;19.96;45.41;97088.20;1717843;82;20968;-60
2022/06/21 11:20:20;;;;;;;2.65;1.20;;;;;;;19.96;43.29;97082.77;1698736;82;21490;-60
2022/06/21 11:22:55;;;;;;;2.10;1.10;;;;;;;20.01;44.21;97083.79;1713524;82;21447;-59
2022/06/21 11:25:37;;;;;;;2.95;1.00;;;;;;;19.96;45.83;97082.77;1706423;84;21419;-63
2022/06/21 11:28:36;;;;;;;4.12;1.00;;;;;;;19.78;45.27;97088.59;1671718;85;21093;-61
2022/06/21 11:31:43;;;;;;;5.67;1.17;;;;;;;19.62;47.20;97095.56;1671794;85;20926;-64
2022/06/21 11:34:50;;;;;;;5.08;0.95;;;;;;;19.54;46.45;97091.79;1672740;85;20938;-63
2022/06/21 11:37:50;;;;;;;3.20;1.10;;;;;;;19.58;46.49;97086.60;1624525;85;20911;-60
2022/06/21 11:40:50;;;;;;;3.72;1.12;;;;;;;19.76;44.33;97090.88;1672748;85;21058;-61
2022/06/21 11:43:53;;;;;;;2.92;1.47;;;;;;;19.88;43.92;97083.06;1672621;85;21023;-65
2022/06/21 11:46:30;;;;;;;;;;;;;;;20.05;45.45;97073.73;1651177;86;21112;-60
2022/06/21 11:49:32;;;;;;;3.45;1.40;;;;;;;20.02;44.49;97073.10;1719393;83;20180;-63
2022/06/21 11:52:26;;;;;;;2.60;1.20;;;;;;;20.10;42.86;97072.03;1686108;84;21145;-62
2022/06/21 11:55:02;;;;;;;3.85;1.10;;;;;;;20.42;43.59;97065.54;1699595;84;21131;-63
2022/06/21 11:57:58;;;;;;;1.72;1.30;;;;;;;20.59;43.92;97077.72;1670404;83;21034;-59
2022/06/21 12:00:52;;;;;;;2.10;1.10;;;;;;;20.57;42.97;97085.48;1672703;85;21126;-57
2022/06/21 12:04:03;;;;;;;4.20;1.30;;;;;;;20.32;41.84;97081.99;1696967;84;21039;-60
2022/06/21 12:07:01;;;;;;;2.02;1.12;;;;;;;20.15;43.16;97080.42;1671580;85;21237;-59
2022/06/21 12:09:55;;;;;;;2.20;1.00;;;;;;;20.20;43.44;97077.37;1719616;83;21062;-57
2022/06/21 12:12:49;;;;;;;2.98;1.40;;;;;;;20.38;42.86;97074.25;1672670;85;21485;-60
2022/06/21 12:15:53;;;;;;;3.02;1.40;;;;;;;20.38;41.35;97075.05;1641181;84;21056;-63
2022/06/21 12:18:23;;;;;;;5.25;1.40;;;;;;;20.07;41.39;97063.26;1700758;84;20934;-59
2022/06/21 12:20:53;;;;;;;3.40;1.30;;;;;;;19.70;42.75;97101.30;1700337;84;21179;-59
2022/06/21 12:23:37;;;;;;;2.05;1.45;;;;;;;19.47;44.10;97067.27;1701105;84;21059;-62
2022/06/21 12:26:04;;;;;;;2.77;1.52;;;;;;;19.38;44.97;97068.13;1700850;84;20985;-63
2022/06/21 12:28:33;;;;;;;4.80;1.30;;;;;;;19.60;45.29;97069.36;1700859;84;20910;-61
2022/06/21 12:31:04;;;;;;;2.72;1.37;;;;;;;19.95;45.14;97058.09;1701152;84;20903;-61
2022/06/21 12:33:33;;;;;;;3.90;1.50;;;;;;;20.15;44.25;97062.18;1700787;84;21787;-61
2022/06/21 12:36:13;;;;;;;4.55;1.60;;;;;;;20.17;43.05;97056.36;1700642;84;20942;-61
2022/06/21 12:38:35;;;;;;;2.30;1.20;;;;;;;20.04;42.33;97066.74;1699684;84;20939;-64
2022/06/21 12:41:32;;;;;;;2.15;1.07;;;;;;;19.94;42.03;97064.69;1701055;84;20947;-64
2022/06/21 12:44:31;;;;;;;2.70;1.40;;;;;;;19.98;42.73;97067.43;1700955;84;21430;-62
2022/06/21 12:47:10;;;;;;;3.65;1.22;;;;;;;20.18;42.32;97068.23;1649285;84;21142;-58
2022/06/21 12:50:23;;;;;;;2.47;1.30;;;;;;;20.09;41.93;97063.66;1700593;84;20998;-60
2022/06/21 12:53:36;;;;;;;4.67;1.40;;;;;;;19.93;42.08;97078.06;1700452;84;20867;-63
2022/06/21 12:56:31;;;;;;;5.10;1.37;;;;;;;19.74;42.71;97068.73;1701126;84;21461;-62
2022/06/21 12:59:27;;;;;;;;;;;;;;;19.61;43.93;97072.86;1703344;84;21006;-62
2022/06/21 13:02:29;;;;;;;3.62;1.15;;;;;;;19.50;42.36;97069.24;1671914;86;21076;-64
2022/06/21 13:05:11;;;;;;;2.60;1.10;;;;;;;19.35;42.26;97070.97;1700981;84;21467;-62
2022/06/21 13:07:46;;;;;;;3.75;1.25;;;;;;;19.27;42.29;97082.87;1700868;84;20899;-62
2022/06/21 13:10:33;;;;;;;;;;;;;;;19.19;42.35;97084.52;1637443;83;20891;-64
2022/06/21 13:13:30;;;;;;;1.50;1.00;;;;;;;19.11;42.72;97080.91;1668483;86;20090;-61
2022/06/21 13:16:09;;;;;;;2.17;1.20;;;;;;;19.02;41.21;97081.19;1733155;82;21243;-61
2022/06/21 13:18:53;;;;;;;3.62;1.30;;;;;;;18.91;42.30;97087.02;1733108;82;21486;-64
2022/06/21 13:21:34;;;;;;;3.75;1.22;;;;;;;18.81;42.37;97097.73;1733168;82;20976;-59
2022/06/21 13:24:50;;;;;;;1.98;1.17;;;;;;;18.68;43.05;97090.92;1733033;82;20864;-59
2022/06/21 13:27:33;;;;;;;3.98;1.30;;;;;;;18.78;43.61;97100.59;1733052;82;20999;-61
2022/06/21 13:30:18;;;;;;;3.00;1.35;;;;;;;18.90;44.00;97097.68;1733084;82;21278;-63
2022/06/21 13:33:12;;;;;;;4.33;1.35;;;;;;;18.89;44.86;97095.31;1733238;82;21022;-60
2022/06/21 13:36:02;;;;;;;5.37;1.85;;;;;;;18.86;45.03;97090.07;1733211;82;20904;-60
2022/06/21 13:39:00;;;;;;;3.90;1.27;;;;;;;18.76;45.29;97090.69;1733141;82;21415;-60
2022/06/21 13:44:51;;;;;;;4.20;1.12;;;;;;;18.40;46.73;97131.32;1732974;82;21222;-64
2022/06/21 13:47:40;;;;;;;3.83;1.37;;;;;;;18.18;46.82;97140.80;1732212;82;21110;-62
2022/06/21 13:50:30;;;;;;;2.17;1.10;;;;;;;17.87;48.27;97135.55;1732093;82;20943;-63
2022/06/21 13:53:10;;;;;;;1.27;1.12;;;;;;;17.90;50.50;97131.54;1732153;82;21473;-60
2022/06/21 13:55:58;;;;;;;2.65;1.20;;;;;;;18.12;52.20;97137.59;1733184;82;20974;-59
2022/06/21 13:58:42;;;;;;;4.22;1.47;;;;;;;18.26;51.92;97142.48;1731618;82;21110;-62
2022/06/21 14:01:41;;;;;;;2.23;1.30;;;;;;;18.29;51.82;97150.69;1732762;82;20954;-61
2022/06/21 14:04:22;;;;;;;3.05;1.27;;;;;;;18.21;51.58;97159.03;1725291;82;21126;-60
2022/06/21 14:07:00;;;;;;;2.67;1.15;;;;;;;18.01;52.38;97157.50;1731740;82;21497;-61
2022/06/21 14:10:43;;;;;;;2.85;1.30;;;;;;;18.52;51.64;97148.58;1889062;76;22371;-63
2022/06/21 14:13:32;;;;;;;2.77;1.50;;;;;;;18.62;51.54;97139.28;1861286;77;20852;-65
2022/06/21 14:16:09;;;;;;;1.67;1.00;;;;;;;18.43;51.21;97140.09;1857198;77;20875;-64
2022/06/21 14:18:59;;;;;;;2.58;1.20;;;;;;;18.04;51.99;97137.83;1860803;77;20919;-62
2022/06/21 14:21:47;;;;;;;2.85;1.32;;;;;;;17.83;53.01;97136.06;1861581;77;20907;-61
2022/06/21 14:24:55;;;;;;;2.10;1.20;;;;;;;17.63;52.99;97129.29;1861533;77;20934;-63
2022/06/21 14:27:42;;;;;;;1.75;1.27;;;;;;;17.48;54.57;97138.22;1861521;77;20832;-68
2022/06/21 14:30:29;;;;;;;2.92;1.20;;;;;;;17.41;54.82;97127.23;1860734;77;21112;-66
2022/06/21 14:33:01;;;;;;;3.00;1.60;;;;;;;17.40;56.54;97131.10;1861442;77;20962;-63
2022/06/21 14:35:47;;;;;;;2.25;1.27;;;;;;;17.52;56.09;97138.34;1861469;77;20915;-61
2022/06/21 14:38:23;;;;;;;1.57;1.30;;;;;;;17.48;56.57;97143.63;1861459;77;20958;-65
2022/06/21 14:41:01;;;;;;;2.15;1.37;;;;;;;17.56;56.66;97145.39;1860047;77;20872;-61
2022/06/21 14:43:53;;;;;;;5.90;1.67;;;;;;;17.97;56.44;97140.40;1861482;77;21230;-72
2022/06/21 14:46:47;;;;;;;3.52;1.37;;;;;;;18.53;50.78;97134.67;1861517;77;20899;-60
2022/06/21 14:49:31;;;;;;;2.77;1.42;;;;;;;18.72;49.87;97130.54;1861528;77;21518;-61
2022/06/21 14:52:49;;;;;;;2.72;1.20;;;;;;;18.78;46.58;97123.66;1850192;77;20915;-64
2022/06/21 14:55:30;;;;;;;3.85;1.30;;;;;;;18.70;46.23;97132.81;1861603;77;20883;-61
2022/06/21 14:58:39;;;;;;;5.33;1.20;;;;;;;18.85;47.59;97131.11;1851013;77;21132;-61
2022/06/21 15:01:44;;;;;;;5.60;1.10;;;;;;;19.11;44.59;97123.77;1861428;77;20915;-64
2022/06/21 15:04:31;;;;;;;2.17;0.93;;;;;;;19.44;44.84;97123.66;1861470;77;20871;-64
2022/06/21 15:07:34;;;;;;;3.00;1.10;;;;;;;19.89;43.83;97130.81;1845371;77;21415;-60
2022/06/21 15:10:13;;;;;;;3.80;1.15;;;;;;;20.22;43.12;97122.09;1851442;77;20876;-64
2022/06/21 15:12:54;;;;;;;4.40;1.10;;;;;;;20.65;41.28;97117.05;1836665;77;21307;-63
2022/06/21 15:15:23;;;;;;;4.62;1.10;;;;;;;20.87;42.30;97111.95;1824076;77;21397;-61
2022/06/21 15:17:57;;;;;;;3.92;1.20;;;;;;;20.94;40.97;97113.36;1826569;77;20872;-64
2022/06/21 15:20:35;;;;;;;3.10;1.00;;;;;;;20.58;41.46;97127.86;1844598;77;20974;-64
2022/06/21 15:23:10;;;;;;;3.05;1.25;;;;;;;19.90;42.13;97116.88;1849376;77;20915;-60
2022/06/21 15:26:02;;;;;;;4.25;1.30;;;;;;;19.39;42.96;97121.26;1840103;77;21513;-63
2022/06/21 15:28:36;;;;;;;2.47;1.02;;;;;;;19.06;44.42;97126.80;1848421;77;20900;-60
2022/06/21 15:31:17;;;;;;;3.92;1.10;;;;;;;18.86;44.41;97119.91;1849025;77;20903;-60
2022/06/21 15:34:12;;;;;;;6.40;1.45;;;;;;;18.58;44.97;97103.19;1849128;77;20884;-63
2022/06/21 15:36:56;;;;;;;4.15;1.10;;;;;;;18.34;45.70;97109.73;1836414;77;20865;-62
2022/06/21 15:39:39;;;;;;;8.05;1.10;;;;;;;18.05;46.75;97123.12;1839969;77;21419;-64
2022/06/21 15:42:32;;;;;;;2.95;1.00;;;;;;;17.82;47.13;97119.58;1839578;77;20927;-61
2022/06/21 15:45:08;;;;;;;5.28;1.40;;;;;;;17.63;47.71;97130.64;1836278;77;20914;-62
2022/06/21 15:50:54;;;;;;;1.22;1.00;;;;;;;17.28;49.06;97131.22;1845436;77;20970;-60
